sensor_id;sensor_type;location;lat;lon;timestamp;pressure;altitude;pressure_sealevel;temperature;humidity
66396;BME280;53207;51.378;-1.342;2023-04-06T00:00:33;100123.87;;;21.16;34.99
66396;BME280;53207;51.378;-1.342;2023-04-06T00:03:00;100119.66;;;21.17;35.01
66396;BME280;53207;51.378;-1.342;2023-04-06T00:05:28;100117.36;;;21.14;34.98
66396;BME280;53207;51.378;-1.342;2023-04-06T00:07:55;100119.58;;;21.12;34.94
66396;BME280;53207;51.378;-1.342;2023-04-06T00:10:22;100112.74;;;21.08;34.98
66396;BME280;53207;51.378;-1.342;2023-04-06T00:12:50;100110.90;;;21.08;34.94
66396;BME280;53207;51.378;-1.342;2023-04-06T00:15:17;100109.98;;;21.01;35.00
66396;BME280;53207;51.378;-1.342;2023-04-06T00:17:44;100105.56;;;21.07;34.86
66396;BME280;53207;51.378;-1.342;2023-04-06T00:20:12;100102.86;;;21.06;34.86
66396;BME280;53207;51.378;-1.342;2023-04-06T00:22:39;100100.07;;;21.24;34.85
66396;BME280;53207;51.378;-1.342;2023-04-06T00:25:07;100098.48;;;21.00;34.85
66396;BME280;53207;51.378;-1.342;2023-04-06T00:27:34;100098.42;;;20.99;34.86
66396;BME280;53207;51.378;-1.342;2023-04-06T00:30:02;100092.11;;;20.98;34.83
66396;BME280;53207;51.378;-1.342;2023-04-06T00:32:29;100089.64;;;20.98;34.76
66396;BME280;53207;51.378;-1.342;2023-04-06T00:34:57;100085.96;;;20.98;34.73
66396;BME280;53207;51.378;-1.342;2023-04-06T00:37:23;100085.09;;;21.17;34.78
66396;BME280;53207;51.378;-1.342;2023-04-06T00:39:51;100079.64;;;20.95;34.69
66396;BME280;53207;51.378;-1.342;2023-04-06T00:42:18;100077.52;;;20.93;34.74
66396;BME280;53207;51.378;-1.342;2023-04-06T00:44:47;100074.63;;;20.93;34.66
66396;BME280;53207;51.378;-1.342;2023-04-06T00:47:14;100069.59;;;20.92;34.64
66396;BME280;53207;51.378;-1.342;2023-04-06T00:49:42;100068.36;;;20.86;34.70
66396;BME280;53207;51.378;-1.342;2023-04-06T00:52:09;100063.80;;;20.90;34.63
66396;BME280;53207;51.378;-1.342;2023-04-06T00:54:37;100061.90;;;21.11;34.63
66396;BME280;53207;51.378;-1.342;2023-04-06T00:57:04;100055.37;;;20.85;34.62
66396;BME280;53207;51.378;-1.342;2023-04-06T00:59:31;100054.34;;;21.07;34.63
66396;BME280;53207;51.378;-1.342;2023-04-06T01:01:58;100050.77;;;20.83;34.60
66396;BME280;53207;51.378;-1.342;2023-04-06T01:04:26;100049.49;;;21.27;34.56
66396;BME280;53207;51.378;-1.342;2023-04-06T01:06:54;100048.61;;;20.80;34.59
66396;BME280;53207;51.378;-1.342;2023-04-06T01:09:21;100045.64;;;21.00;34.59
66396;BME280;53207;51.378;-1.342;2023-04-06T01:11:48;100043.82;;;20.82;34.54
66396;BME280;53207;51.378;-1.342;2023-04-06T01:14:16;100039.79;;;20.97;34.56
66396;BME280;53207;51.378;-1.342;2023-04-06T01:16:43;100037.54;;;20.75;34.56
66396;BME280;53207;51.378;-1.342;2023-04-06T01:19:11;100036.89;;;21.19;34.52
66396;BME280;53207;51.378;-1.342;2023-04-06T01:21:40;100032.69;;;20.95;34.53
66396;BME280;53207;51.378;-1.342;2023-04-06T01:24:09;100033.65;;;20.73;34.50
66396;BME280;53207;51.378;-1.342;2023-04-06T01:26:38;100032.50;;;20.74;34.46
66396;BME280;53207;51.378;-1.342;2023-04-06T01:29:06;100028.55;;;21.22;34.43
66396;BME280;53207;51.378;-1.342;2023-04-06T01:31:33;100023.09;;;20.99;34.38
66396;BME280;53207;51.378;-1.342;2023-04-06T01:34:00;100025.12;;;20.97;34.37
66396;BME280;53207;51.378;-1.342;2023-04-06T01:36:28;100022.35;;;20.74;34.38
66396;BME280;53207;51.378;-1.342;2023-04-06T01:38:55;100018.24;;;20.74;34.37
66396;BME280;53207;51.378;-1.342;2023-04-06T01:41:22;100015.83;;;20.94;34.35
66396;BME280;53207;51.378;-1.342;2023-04-06T01:43:49;100011.45;;;20.93;34.39
66396;BME280;53207;51.378;-1.342;2023-04-06T01:46:17;100006.03;;;20.90;34.41
66396;BME280;53207;51.378;-1.342;2023-04-06T01:48:44;100001.75;;;21.16;34.31
66396;BME280;53207;51.378;-1.342;2023-04-06T01:51:11;99997.66;;;20.91;34.36
66396;BME280;53207;51.378;-1.342;2023-04-06T01:53:39;99997.67;;;21.11;34.34
66396;BME280;53207;51.378;-1.342;2023-04-06T01:56:06;99991.33;;;20.67;34.30
66396;BME280;53207;51.378;-1.342;2023-04-06T01:58:33;99993.29;;;20.88;34.33
66396;BME280;53207;51.378;-1.342;2023-04-06T02:01:00;99983.77;;;20.63;34.33
66396;BME280;53207;51.378;-1.342;2023-04-06T02:03:28;99980.09;;;21.10;34.28
66396;BME280;53207;51.378;-1.342;2023-04-06T02:05:55;99981.23;;;20.63;34.30
66396;BME280;53207;51.378;-1.342;2023-04-06T02:08:22;99981.14;;;21.06;34.31
66396;BME280;53207;51.378;-1.342;2023-04-06T02:10:50;99979.22;;;21.05;34.27
66396;BME280;53207;51.378;-1.342;2023-04-06T02:13:17;99975.31;;;21.07;34.26
66396;BME280;53207;51.378;-1.342;2023-04-06T02:15:44;99977.08;;;20.60;34.27
66396;BME280;53207;51.378;-1.342;2023-04-06T02:18:12;99973.47;;;21.05;34.24
66396;BME280;53207;51.378;-1.342;2023-04-06T02:20:39;99969.68;;;20.82;34.25
66396;BME280;53207;51.378;-1.342;2023-04-06T02:23:07;99965.33;;;20.57;34.26
66396;BME280;53207;51.378;-1.342;2023-04-06T02:25:33;99972.12;;;20.55;34.27
66396;BME280;53207;51.378;-1.342;2023-04-06T02:28:01;99968.24;;;20.78;34.24
66396;BME280;53207;51.378;-1.342;2023-04-06T02:30:28;99964.42;;;21.00;34.21
66396;BME280;53207;51.378;-1.342;2023-04-06T02:32:55;99955.51;;;20.99;34.22
66396;BME280;53207;51.378;-1.342;2023-04-06T02:35:24;99951.46;;;20.78;34.18
66396;BME280;53207;51.378;-1.342;2023-04-06T02:37:51;99951.52;;;20.93;34.24
66396;BME280;53207;51.378;-1.342;2023-04-06T02:40:18;99949.51;;;20.88;34.30
66396;BME280;53207;51.378;-1.342;2023-04-06T02:42:46;99952.48;;;20.85;34.32
66396;BME280;53207;51.378;-1.342;2023-04-06T02:45:13;99951.64;;;20.82;34.33
66396;BME280;53207;51.378;-1.342;2023-04-06T02:47:40;99951.57;;;20.78;34.42
66396;BME280;53207;51.378;-1.342;2023-04-06T02:50:08;99948.24;;;20.71;34.44
66396;BME280;53207;51.378;-1.342;2023-04-06T02:52:36;99944.27;;;20.48;34.44
66396;BME280;53207;51.378;-1.342;2023-04-06T02:55:04;99941.82;;;20.65;34.49
66396;BME280;53207;51.378;-1.342;2023-04-06T02:57:31;99939.44;;;20.68;34.44
66396;BME280;53207;51.378;-1.342;2023-04-06T02:59:58;99935.77;;;20.67;34.43
66396;BME280;53207;51.378;-1.342;2023-04-06T03:02:26;99935.76;;;20.66;34.43
66396;BME280;53207;51.378;-1.342;2023-04-06T03:04:53;99933.03;;;20.62;34.46
66396;BME280;53207;51.378;-1.342;2023-04-06T03:07:20;99933.04;;;20.61;34.49
66396;BME280;53207;51.378;-1.342;2023-04-06T03:09:48;99929.96;;;20.57;34.52
66396;BME280;53207;51.378;-1.342;2023-04-06T03:12:15;99930.82;;;20.56;34.52
66396;BME280;53207;51.378;-1.342;2023-04-06T03:14:42;99927.64;;;20.60;34.44
66396;BME280;53207;51.378;-1.342;2023-04-06T03:17:10;99923.87;;;20.54;34.49
66396;BME280;53207;51.378;-1.342;2023-04-06T03:19:37;99922.84;;;20.56;34.46
66396;BME280;53207;51.378;-1.342;2023-04-06T03:22:04;99919.30;;;20.52;34.51
66396;BME280;53207;51.378;-1.342;2023-04-06T03:24:31;99915.46;;;20.78;34.49
66396;BME280;53207;51.378;-1.342;2023-04-06T03:26:59;99908.77;;;20.51;34.47
66396;BME280;53207;51.378;-1.342;2023-04-06T03:29:26;99910.53;;;20.50;34.50
66396;BME280;53207;51.378;-1.342;2023-04-06T03:31:54;99907.11;;;20.51;34.46
66396;BME280;53207;51.378;-1.342;2023-04-06T03:34:21;99901.79;;;20.75;34.48
66396;BME280;53207;51.378;-1.342;2023-04-06T03:36:48;99901.45;;;20.49;34.46
66396;BME280;53207;51.378;-1.342;2023-04-06T03:39:15;99900.69;;;20.48;34.46
66396;BME280;53207;51.378;-1.342;2023-04-06T03:41:43;99894.91;;;20.46;34.48
66396;BME280;53207;51.378;-1.342;2023-04-06T03:44:10;99893.84;;;20.48;34.42
66396;BME280;53207;51.378;-1.342;2023-04-06T03:46:37;99892.26;;;20.44;34.48
66396;BME280;53207;51.378;-1.342;2023-04-06T03:49:05;99888.47;;;20.44;34.45
66396;BME280;53207;51.378;-1.342;2023-04-06T03:51:32;99884.92;;;20.44;34.45
66396;BME280;53207;51.378;-1.342;2023-04-06T03:53:59;99882.12;;;20.38;34.52
66396;BME280;53207;51.378;-1.342;2023-04-06T03:56:26;99880.88;;;20.44;34.43
66396;BME280;53207;51.378;-1.342;2023-04-06T03:58:54;99882.42;;;20.45;34.38
66396;BME280;53207;51.378;-1.342;2023-04-06T04:01:21;99881.00;;;20.42;34.43
66396;BME280;53207;51.378;-1.342;2023-04-06T04:03:48;99877.38;;;20.41;34.42
66396;BME280;53207;51.378;-1.342;2023-04-06T04:06:16;99872.74;;;20.65;34.45
66396;BME280;53207;51.378;-1.342;2023-04-06T04:08:43;99870.35;;;20.67;34.38
66396;BME280;53207;51.378;-1.342;2023-04-06T04:11:10;99866.60;;;20.67;34.38
66396;BME280;53207;51.378;-1.342;2023-04-06T04:13:38;99861.68;;;20.34;34.45
66396;BME280;53207;51.378;-1.342;2023-04-06T04:16:05;99860.47;;;20.34;34.44
66396;BME280;53207;51.378;-1.342;2023-04-06T04:18:32;99860.93;;;20.63;34.39
66396;BME280;53207;51.378;-1.342;2023-04-06T04:20:59;99859.12;;;20.34;34.39
66396;BME280;53207;51.378;-1.342;2023-04-06T04:23:27;99858.44;;;20.31;34.42
66396;BME280;53207;51.378;-1.342;2023-04-06T04:25:54;99865.02;;;20.33;34.41
66396;BME280;53207;51.378;-1.342;2023-04-06T04:28:21;99863.68;;;20.59;34.41
66396;BME280;53207;51.378;-1.342;2023-04-06T04:30:49;99860.43;;;20.59;34.38
66396;BME280;53207;51.378;-1.342;2023-04-06T04:33:16;99857.23;;;20.56;34.41
66396;BME280;53207;51.378;-1.342;2023-04-06T04:35:43;99853.30;;;20.55;34.41
66396;BME280;53207;51.378;-1.342;2023-04-06T04:38:10;99849.19;;;20.52;34.42
66396;BME280;53207;51.378;-1.342;2023-04-06T04:40:38;99841.82;;;20.24;34.40
66396;BME280;53207;51.378;-1.342;2023-04-06T04:43:05;99843.07;;;20.24;34.42
66396;BME280;53207;51.378;-1.342;2023-04-06T04:45:32;99847.26;;;20.25;34.40
66396;BME280;53207;51.378;-1.342;2023-04-06T04:48:00;99850.24;;;20.24;34.39
66396;BME280;53207;51.378;-1.342;2023-04-06T04:50:27;99851.20;;;20.50;34.37
66396;BME280;53207;51.378;-1.342;2023-04-06T04:52:54;99844.58;;;20.24;34.37
66396;BME280;53207;51.378;-1.342;2023-04-06T04:55:22;99852.26;;;20.48;34.39
66396;BME280;53207;51.378;-1.342;2023-04-06T04:57:49;99854.79;;;20.22;34.37
66396;BME280;53207;51.378;-1.342;2023-04-06T05:00:16;99852.87;;;20.48;34.37
66396;BME280;53207;51.378;-1.342;2023-04-06T05:02:43;99855.56;;;20.20;34.37
66396;BME280;53207;51.378;-1.342;2023-04-06T05:05:11;99866.03;;;20.49;34.33
66396;BME280;53207;51.378;-1.342;2023-04-06T05:07:38;99876.86;;;20.47;34.35
66396;BME280;53207;51.378;-1.342;2023-04-06T05:10:06;99877.02;;;20.14;34.40
66396;BME280;53207;51.378;-1.342;2023-04-06T05:12:34;99878.52;;;20.18;34.33
66396;BME280;53207;51.378;-1.342;2023-04-06T05:15:01;99874.62;;;20.17;34.31
66396;BME280;53207;51.378;-1.342;2023-04-06T05:17:28;99877.70;;;20.43;34.33
66396;BME280;53207;51.378;-1.342;2023-04-06T05:19:55;99880.12;;;20.17;34.30
66396;BME280;53207;51.378;-1.342;2023-04-06T05:22:23;99883.99;;;20.42;34.32
66396;BME280;53207;51.378;-1.342;2023-04-06T05:24:50;99880.81;;;20.15;34.39
66396;BME280;53207;51.378;-1.342;2023-04-06T05:27:17;99879.21;;;20.43;34.55
66396;BME280;53207;51.378;-1.342;2023-04-06T05:29:45;99872.37;;;20.14;34.62
66396;BME280;53207;51.378;-1.342;2023-04-06T05:32:12;99873.16;;;20.40;34.57
66396;BME280;53207;51.378;-1.342;2023-04-06T05:34:39;99871.72;;;20.14;34.57
66396;BME280;53207;51.378;-1.342;2023-04-06T05:37:06;99866.24;;;20.39;34.57
66396;BME280;53207;51.378;-1.342;2023-04-06T05:39:34;99865.01;;;20.40;34.55
66396;BME280;53207;51.378;-1.342;2023-04-06T05:42:03;99860.88;;;20.41;34.54
66396;BME280;53207;51.378;-1.342;2023-04-06T05:44:31;99863.25;;;20.63;34.60
66396;BME280;53207;51.378;-1.342;2023-04-06T05:46:58;99855.90;;;20.40;34.61
66396;BME280;53207;51.378;-1.342;2023-04-06T05:49:25;99851.71;;;20.36;34.69
66396;BME280;53207;51.378;-1.342;2023-04-06T05:51:53;99841.52;;;20.10;34.66
66396;BME280;53207;51.378;-1.342;2023-04-06T05:54:20;99844.47;;;20.10;34.65
66396;BME280;53207;51.378;-1.342;2023-04-06T05:56:47;99853.19;;;20.08;34.69
66396;BME280;53207;51.378;-1.342;2023-04-06T05:59:15;99860.89;;;20.36;34.60
66396;BME280;53207;51.378;-1.342;2023-04-06T06:01:42;99868.87;;;20.08;34.60
66396;BME280;53207;51.378;-1.342;2023-04-06T06:04:09;99868.60;;;20.02;34.70
66396;BME280;53207;51.378;-1.342;2023-04-06T06:06:37;99866.99;;;20.52;34.65
66396;BME280;53207;51.378;-1.342;2023-04-06T06:09:04;99864.62;;;19.99;34.73
66396;BME280;53207;51.378;-1.342;2023-04-06T06:11:31;99866.10;;;20.01;34.70
66396;BME280;53207;51.378;-1.342;2023-04-06T06:13:58;99866.04;;;19.96;34.73
66396;BME280;53207;51.378;-1.342;2023-04-06T06:16:26;99866.25;;;19.96;34.71
66396;BME280;53207;51.378;-1.342;2023-04-06T06:18:53;99869.80;;;20.25;34.73
66396;BME280;53207;51.378;-1.342;2023-04-06T06:21:20;99873.67;;;20.29;34.89
66396;BME280;53207;51.378;-1.342;2023-04-06T06:23:48;99877.38;;;20.03;35.22
66396;BME280;53207;51.378;-1.342;2023-04-06T06:26:15;99881.64;;;19.85;35.47
66396;BME280;53207;51.378;-1.342;2023-04-06T06:28:42;99876.99;;;20.62;35.07
66396;BME280;53207;51.378;-1.342;2023-04-06T06:31:09;99880.65;;;20.39;35.27
66396;BME280;53207;51.378;-1.342;2023-04-06T06:33:37;99885.73;;;20.15;35.40
66396;BME280;53207;51.378;-1.342;2023-04-06T06:36:04;99885.17;;;20.14;35.37
66396;BME280;53207;51.378;-1.342;2023-04-06T06:38:31;99887.57;;;20.14;35.19
66396;BME280;53207;51.378;-1.342;2023-04-06T06:40:59;99885.29;;;20.43;35.25
66396;BME280;53207;51.378;-1.342;2023-04-06T06:43:26;99891.36;;;20.41;35.24
66396;BME280;53207;51.378;-1.342;2023-04-06T06:45:54;99891.54;;;20.50;35.29
66396;BME280;53207;51.378;-1.342;2023-04-06T06:48:20;99892.96;;;20.57;35.32
66396;BME280;53207;51.378;-1.342;2023-04-06T06:50:48;99894.39;;;20.71;35.23
66396;BME280;53207;51.378;-1.342;2023-04-06T06:53:15;99897.74;;;20.79;35.20
66396;BME280;53207;51.378;-1.342;2023-04-06T06:55:42;99898.18;;;20.69;35.08
66396;BME280;53207;51.378;-1.342;2023-04-06T06:58:10;99899.79;;;21.04;34.98
66396;BME280;53207;51.378;-1.342;2023-04-06T07:00:37;99898.75;;;21.13;34.90
66396;BME280;53207;51.378;-1.342;2023-04-06T07:03:04;99901.90;;;21.21;34.85
66396;BME280;53207;51.378;-1.342;2023-04-06T07:05:32;99904.16;;;21.38;34.76
66396;BME280;53207;51.378;-1.342;2023-04-06T07:08:00;99903.13;;;21.00;34.69
66396;BME280;53207;51.378;-1.342;2023-04-06T07:10:27;99905.70;;;21.32;34.58
66396;BME280;53207;51.378;-1.342;2023-04-06T07:12:54;99902.44;;;21.40;34.49
66396;BME280;53207;51.378;-1.342;2023-04-06T07:15:22;99904.71;;;21.25;34.38
66396;BME280;53207;51.378;-1.342;2023-04-06T07:17:49;99905.42;;;21.32;34.31
66396;BME280;53207;51.378;-1.342;2023-04-06T07:20:16;99905.29;;;21.37;34.22
66396;BME280;53207;51.378;-1.342;2023-04-06T07:22:43;99906.34;;;21.65;34.16
66396;BME280;53207;51.378;-1.342;2023-04-06T07:25:10;99909.15;;;21.43;34.14
66396;BME280;53207;51.378;-1.342;2023-04-06T07:27:38;99904.51;;;21.45;34.07
66396;BME280;53207;51.378;-1.342;2023-04-06T07:30:06;99900.85;;;21.49;34.01
66396;BME280;53207;51.378;-1.342;2023-04-06T07:32:34;99905.48;;;21.53;33.95
66396;BME280;53207;51.378;-1.342;2023-04-06T07:35:01;99906.47;;;21.49;33.92
66396;BME280;53207;51.378;-1.342;2023-04-06T07:37:29;99901.85;;;21.56;33.84
66396;BME280;53207;51.378;-1.342;2023-04-06T07:39:56;99900.05;;;21.56;33.77
66396;BME280;53207;51.378;-1.342;2023-04-06T07:42:23;99902.09;;;21.56;33.72
66396;BME280;53207;51.378;-1.342;2023-04-06T07:44:50;99902.26;;;21.53;33.73
66396;BME280;53207;51.378;-1.342;2023-04-06T07:47:17;99902.51;;;21.42;33.81
66396;BME280;53207;51.378;-1.342;2023-04-06T07:49:45;99898.31;;;21.41;33.84
66396;BME280;53207;51.378;-1.342;2023-04-06T07:52:12;99907.43;;;21.66;33.59
66396;BME280;53207;51.378;-1.342;2023-04-06T07:54:40;99904.00;;;21.56;33.69
66396;BME280;53207;51.378;-1.342;2023-04-06T07:57:07;99903.99;;;21.67;33.59
66396;BME280;53207;51.378;-1.342;2023-04-06T07:59:35;99899.60;;;21.50;33.50
66396;BME280;53207;51.378;-1.342;2023-04-06T08:02:02;99902.68;;;21.77;33.51
66396;BME280;53207;51.378;-1.342;2023-04-06T08:04:29;99902.53;;;21.85;33.46
66396;BME280;53207;51.378;-1.342;2023-04-06T08:06:56;99902.67;;;21.88;33.43
66396;BME280;53207;51.378;-1.342;2023-04-06T08:09:24;99901.77;;;21.85;33.47
66396;BME280;53207;51.378;-1.342;2023-04-06T08:11:51;99906.37;;;21.86;33.45
66396;BME280;53207;51.378;-1.342;2023-04-06T08:14:18;99908.59;;;21.82;33.49
66396;BME280;53207;51.378;-1.342;2023-04-06T08:16:46;99910.02;;;21.78;33.52
66396;BME280;53207;51.378;-1.342;2023-04-06T08:19:14;99911.04;;;21.80;33.49
66396;BME280;53207;51.378;-1.342;2023-04-06T08:21:41;99912.06;;;21.79;33.49
66396;BME280;53207;51.378;-1.342;2023-04-06T08:24:08;99918.29;;;21.77;33.52
66396;BME280;53207;51.378;-1.342;2023-04-06T08:26:36;99920.99;;;21.79;33.52
66396;BME280;53207;51.378;-1.342;2023-04-06T08:29:03;99917.13;;;21.80;33.49
66396;BME280;53207;51.378;-1.342;2023-04-06T08:31:31;99914.42;;;21.55;33.49
66396;BME280;53207;51.378;-1.342;2023-04-06T08:33:58;99916.84;;;21.82;33.50
66396;BME280;53207;51.378;-1.342;2023-04-06T08:36:26;99917.51;;;21.79;33.54
66396;BME280;53207;51.378;-1.342;2023-04-06T08:38:53;99920.55;;;21.85;33.48
66396;BME280;53207;51.378;-1.342;2023-04-06T08:41:20;99923.57;;;21.81;33.51
66396;BME280;53207;51.378;-1.342;2023-04-06T08:43:49;99926.54;;;21.61;33.43
66396;BME280;53207;51.378;-1.342;2023-04-06T08:46:17;99931.82;;;21.63;33.41
66396;BME280;53207;51.378;-1.342;2023-04-06T08:48:45;99930.52;;;21.44;33.37
66396;BME280;53207;51.378;-1.342;2023-04-06T08:51:14;99935.65;;;21.72;33.28
66396;BME280;53207;51.378;-1.342;2023-04-06T08:53:42;99937.44;;;21.74;33.26
66396;BME280;53207;51.378;-1.342;2023-04-06T08:56:09;99941.60;;;21.75;33.25
66396;BME280;53207;51.378;-1.342;2023-04-06T08:58:39;99947.38;;;21.79;33.23
66396;BME280;53207;51.378;-1.342;2023-04-06T09:01:07;99950.26;;;21.56;33.24
66396;BME280;53207;51.378;-1.342;2023-04-06T09:03:38;99948.77;;;21.75;33.29
66396;BME280;53207;51.378;-1.342;2023-04-06T09:06:06;99949.27;;;21.75;33.30
66396;BME280;53207;51.378;-1.342;2023-04-06T09:08:34;99948.65;;;21.77;33.29
66396;BME280;53207;51.378;-1.342;2023-04-06T09:11:01;99943.97;;;22.02;33.32
66396;BME280;53207;51.378;-1.342;2023-04-06T09:13:29;99951.80;;;22.03;33.32
66396;BME280;53207;51.378;-1.342;2023-04-06T09:16:01;99950.03;;;21.57;33.32
66396;BME280;53207;51.378;-1.342;2023-04-06T09:18:28;99950.38;;;22.11;33.26
66396;BME280;53207;51.378;-1.342;2023-04-06T09:20:58;99958.23;;;21.85;33.23
66396;BME280;53207;51.378;-1.342;2023-04-06T09:23:26;99953.42;;;21.84;33.28
66396;BME280;53207;51.378;-1.342;2023-04-06T09:26:05;99954.36;;;22.13;33.25
66396;BME280;53207;51.378;-1.342;2023-04-06T09:28:42;99951.89;;;21.90;33.23
66396;BME280;53207;51.378;-1.342;2023-04-06T09:31:09;99951.01;;;22.19;33.22
66396;BME280;53207;51.378;-1.342;2023-04-06T09:33:38;99950.78;;;21.92;33.24
66396;BME280;53207;51.378;-1.342;2023-04-06T09:36:07;99954.53;;;21.86;33.29
66396;BME280;53207;51.378;-1.342;2023-04-06T09:38:34;99955.34;;;22.12;33.33
66396;BME280;53207;51.378;-1.342;2023-04-06T09:41:01;99957.73;;;21.84;33.39
66396;BME280;53207;51.378;-1.342;2023-04-06T09:43:29;99960.38;;;21.84;33.38
66396;BME280;53207;51.378;-1.342;2023-04-06T09:45:57;99958.13;;;22.05;33.46
66396;BME280;53207;51.378;-1.342;2023-04-06T09:48:27;99966.94;;;21.99;33.55
66396;BME280;53207;51.378;-1.342;2023-04-06T09:50:59;99966.73;;;22.04;33.49
66396;BME280;53207;51.378;-1.342;2023-04-06T09:53:30;99968.31;;;22.06;33.49
66396;BME280;53207;51.378;-1.342;2023-04-06T09:56:02;99969.04;;;22.04;33.47
66396;BME280;53207;51.378;-1.342;2023-04-06T09:58:34;99969.92;;;22.01;33.50
66396;BME280;53207;51.378;-1.342;2023-04-06T10:01:07;99973.84;;;22.01;33.51
66396;BME280;53207;51.378;-1.342;2023-04-06T10:03:42;99978.63;;;21.99;33.56
66396;BME280;53207;51.378;-1.342;2023-04-06T10:06:13;99979.89;;;21.80;33.46
66396;BME280;53207;51.378;-1.342;2023-04-06T10:08:43;99976.58;;;22.05;33.47
66396;BME280;53207;51.378;-1.342;2023-04-06T10:11:12;99970.59;;;21.98;33.52
66396;BME280;53207;51.378;-1.342;2023-04-06T10:13:39;99969.37;;;22.03;33.49
66396;BME280;53207;51.378;-1.342;2023-04-06T10:16:08;99968.35;;;21.71;33.52
66396;BME280;53207;51.378;-1.342;2023-04-06T10:18:35;99974.15;;;21.77;33.46
66396;BME280;53207;51.378;-1.342;2023-04-06T10:21:08;99977.46;;;22.08;33.40
66396;BME280;53207;51.378;-1.342;2023-04-06T10:23:38;99979.31;;;21.81;33.36
66396;BME280;53207;51.378;-1.342;2023-04-06T10:26:13;99978.13;;;21.81;33.34
66396;BME280;53207;51.378;-1.342;2023-04-06T10:28:42;99980.89;;;21.78;33.32
66396;BME280;53207;51.378;-1.342;2023-04-06T10:31:10;99977.34;;;21.85;33.22
66396;BME280;53207;51.378;-1.342;2023-04-06T10:33:37;99975.20;;;22.11;33.18
66396;BME280;53207;51.378;-1.342;2023-04-06T10:36:12;99977.94;;;21.85;33.16
66396;BME280;53207;51.378;-1.342;2023-04-06T10:38:41;99979.88;;;21.93;33.08
66396;BME280;53207;51.378;-1.342;2023-04-06T10:41:10;99978.38;;;21.74;33.06
66396;BME280;53207;51.378;-1.342;2023-04-06T10:43:39;99978.80;;;22.01;33.00
66396;BME280;53207;51.378;-1.342;2023-04-06T10:46:07;99981.51;;;22.00;33.03
66396;BME280;53207;51.378;-1.342;2023-04-06T10:48:39;99984.37;;;21.81;32.98
66396;BME280;53207;51.378;-1.342;2023-04-06T10:51:11;99988.97;;;22.04;32.96
66396;BME280;53207;51.378;-1.342;2023-04-06T10:53:41;99992.81;;;22.05;32.94
66396;BME280;53207;51.378;-1.342;2023-04-06T10:56:10;99995.35;;;22.07;32.90
66396;BME280;53207;51.378;-1.342;2023-04-06T10:58:38;99994.32;;;22.06;32.87
66396;BME280;53207;51.378;-1.342;2023-04-06T11:01:11;100002.40;;;22.04;32.87
66396;BME280;53207;51.378;-1.342;2023-04-06T11:03:43;100003.42;;;22.12;32.81
66396;BME280;53207;51.378;-1.342;2023-04-06T11:06:17;100000.59;;;21.83;32.87
66396;BME280;53207;51.378;-1.342;2023-04-06T11:08:44;100000.43;;;22.14;32.79
66396;BME280;53207;51.378;-1.342;2023-04-06T11:11:13;100000.32;;;22.16;32.75
66396;BME280;53207;51.378;-1.342;2023-04-06T11:13:42;99996.56;;;22.16;32.77
66396;BME280;53207;51.378;-1.342;2023-04-06T11:16:14;99995.55;;;22.17;32.77
66396;BME280;53207;51.378;-1.342;2023-04-06T11:18:57;100000.48;;;21.95;32.77
66396;BME280;53207;51.378;-1.342;2023-04-06T11:21:35;99994.41;;;22.18;32.78
66396;BME280;53207;51.378;-1.342;2023-04-06T11:24:07;99998.03;;;22.21;32.74
66396;BME280;53207;51.378;-1.342;2023-04-06T11:26:39;100001.89;;;22.03;32.70
66396;BME280;53207;51.378;-1.342;2023-04-06T11:29:07;100002.16;;;22.06;32.64
66396;BME280;53207;51.378;-1.342;2023-04-06T11:31:39;100000.51;;;22.27;32.64
66396;BME280;53207;51.378;-1.342;2023-04-06T11:34:10;100007.06;;;22.57;32.61
66396;BME280;53207;51.378;-1.342;2023-04-06T11:36:40;100013.36;;;22.32;32.58
66396;BME280;53207;51.378;-1.342;2023-04-06T11:39:08;100007.73;;;22.11;32.57
66396;BME280;53207;51.378;-1.342;2023-04-06T11:41:36;100011.50;;;22.10;32.56
66396;BME280;53207;51.378;-1.342;2023-04-06T11:44:03;100013.12;;;22.27;32.58
66396;BME280;53207;51.378;-1.342;2023-04-06T11:46:32;100009.59;;;22.30;32.53
66396;BME280;53207;51.378;-1.342;2023-04-06T11:49:01;100014.83;;;22.26;32.55
66396;BME280;53207;51.378;-1.342;2023-04-06T11:51:28;100032.02;;;21.95;32.59
66396;BME280;53207;51.378;-1.342;2023-04-06T11:53:55;100033.71;;;21.89;32.64
66396;BME280;53207;51.378;-1.342;2023-04-06T11:56:24;100030.65;;;21.86;32.64
66396;BME280;53207;51.378;-1.342;2023-04-06T11:58:53;100027.60;;;21.80;32.69
66396;BME280;53207;51.378;-1.342;2023-04-06T12:01:21;100023.27;;;21.95;32.73
66396;BME280;53207;51.378;-1.342;2023-04-06T12:03:48;100020.39;;;22.10;32.85
66396;BME280;53207;51.378;-1.342;2023-04-06T12:06:16;100017.55;;;21.78;32.86
66396;BME280;53207;51.378;-1.342;2023-04-06T12:08:44;100027.36;;;21.68;32.95
66396;BME280;53207;51.378;-1.342;2023-04-06T12:11:11;100030.42;;;21.91;33.00
66396;BME280;53207;51.378;-1.342;2023-04-06T12:13:38;100032.19;;;21.55;33.09
66396;BME280;53207;51.378;-1.342;2023-04-06T12:16:06;100027.98;;;21.78;33.14
66396;BME280;53207;51.378;-1.342;2023-04-06T12:18:33;100028.34;;;21.71;33.18
66396;BME280;53207;51.378;-1.342;2023-04-06T12:21:00;100031.61;;;21.63;33.26
66396;BME280;53207;51.378;-1.342;2023-04-06T12:23:27;100044.13;;;21.62;33.25
66396;BME280;53207;51.378;-1.342;2023-04-06T12:25:55;100049.33;;;21.55;33.31
66396;BME280;53207;51.378;-1.342;2023-04-06T12:28:22;100052.68;;;21.48;33.39
66396;BME280;53207;51.378;-1.342;2023-04-06T12:30:50;100054.25;;;21.41;33.43
66396;BME280;53207;51.378;-1.342;2023-04-06T12:33:17;100070.03;;;21.35;33.46
66396;BME280;53207;51.378;-1.342;2023-04-06T12:35:45;100076.51;;;21.32;33.48
66396;BME280;53207;51.378;-1.342;2023-04-06T12:38:12;100083.92;;;21.33;33.46
66396;BME280;53207;51.378;-1.342;2023-04-06T12:40:39;100086.50;;;20.96;33.54
66396;BME280;53207;51.378;-1.342;2023-04-06T12:43:06;100092.46;;;21.26;33.48
66396;BME280;53207;51.378;-1.342;2023-04-06T12:45:34;100088.33;;;21.24;33.50
66396;BME280;53207;51.378;-1.342;2023-04-06T12:48:01;100089.38;;;21.54;33.41
66396;BME280;53207;51.378;-1.342;2023-04-06T12:50:28;100084.20;;;21.55;33.36